sensor_id;sensor_type;location;lat;lon;timestamp;pressure;altitude;pressure_sealevel;temperature;humidity
55490;BME280;44029;52.956;4.772;2022-10-16T00:01:06;100825.03;;;15.89;100.00
55490;BME280;44029;52.956;4.772;2022-10-16T00:03:31;100820.69;;;15.78;100.00
55490;BME280;44029;52.956;4.772;2022-10-16T00:05:59;100829.19;;;15.87;100.00
55490;BME280;44029;52.956;4.772;2022-10-16T00:08:25;100831.72;;;15.73;100.00
55490;BME280;44029;52.956;4.772;2022-10-16T00:10:51;100830.09;;;15.72;100.00
55490;BME280;44029;52.956;4.772;2022-10-16T00:13:16;100822.34;;;15.69;100.00
55490;BME280;44029;52.956;4.772;2022-10-16T00:15:43;100824.84;;;15.70;100.00
55490;BME280;44029;52.956;4.772;2022-10-16T00:18:09;100828.97;;;15.78;100.00
55490;BME280;44029;52.956;4.772;2022-10-16T00:20:34;100829.56;;;15.70;100.00
55490;BME280;44029;52.956;4.772;2022-10-16T00:23:01;100827.91;;;15.63;100.00
55490;BME280;44029;52.956;4.772;2022-10-16T00:25:28;100830.72;;;15.53;100.00
55490;BME280;44029;52.956;4.772;2022-10-16T00:27:54;100829.59;;;15.54;100.00
55490;BME280;44029;52.956;4.772;2022-10-16T00:30:19;100832.09;;;15.51;100.00
55490;BME280;44029;52.956;4.772;2022-10-16T00:32:45;100826.91;;;15.44;100.00
55490;BME280;44029;52.956;4.772;2022-10-16T00:35:10;100825.78;;;15.50;100.00
55490;BME280;44029;52.956;4.772;2022-10-16T00:37:35;100828.28;;;15.41;100.00
55490;BME280;44029;52.956;4.772;2022-10-16T00:40:01;100828.00;;;15.43;100.00
55490;BME280;44029;52.956;4.772;2022-10-16T00:42:26;100827.47;;;15.41;100.00
55490;BME280;44029;52.956;4.772;2022-10-16T00:44:54;100817.50;;;15.50;100.00
55490;BME280;44029;52.956;4.772;2022-10-16T00:47:31;100826.00;;;15.64;100.00
55490;BME280;44029;52.956;4.772;2022-10-16T00:50:07;100811.56;;;15.72;100.00
55490;BME280;44029;52.956;4.772;2022-10-16T00:52:33;100819.41;;;15.55;100.00
55490;BME280;44029;52.956;4.772;2022-10-16T00:55:00;100830.38;;;15.65;100.00
55490;BME280;44029;52.956;4.772;2022-10-16T00:57:26;100822.38;;;15.63;100.00
55490;BME280;44029;52.956;4.772;2022-10-16T00:59:52;100828.69;;;15.79;100.00
55490;BME280;44029;52.956;4.772;2022-10-16T01:02:18;100851.34;;;15.71;100.00
55490;BME280;44029;52.956;4.772;2022-10-16T01:04:53;100862.47;;;15.56;100.00
55490;BME280;44029;52.956;4.772;2022-10-16T01:07:38;100858.38;;;15.48;100.00
55490;BME280;44029;52.956;4.772;2022-10-16T01:12:50;100870.91;;;15.04;100.00
55490;BME280;44029;52.956;4.772;2022-10-16T01:15:30;100889.34;;;15.30;100.00
55490;BME280;44029;52.956;4.772;2022-10-16T01:18:11;100876.16;;;15.11;100.00
55490;BME280;44029;52.956;4.772;2022-10-16T01:20:47;100881.66;;;15.16;100.00
55490;BME280;44029;52.956;4.772;2022-10-16T01:28:46;100887.97;;;15.27;100.00
55490;BME280;44029;52.956;4.772;2022-10-16T01:31:18;100894.34;;;15.17;100.00
55490;BME280;44029;52.956;4.772;2022-10-16T01:33:53;100892.97;;;15.15;100.00
55490;BME280;44029;52.956;4.772;2022-10-16T01:36:26;100891.34;;;15.08;100.00
55490;BME280;44029;52.956;4.772;2022-10-16T01:38:53;100889.66;;;15.18;100.00
55490;BME280;44029;52.956;4.772;2022-10-16T01:41:26;100885.53;;;15.10;100.00
55490;BME280;44029;52.956;4.772;2022-10-16T01:44:08;100883.28;;;15.22;100.00
55490;BME280;44029;52.956;4.772;2022-10-16T01:46:36;100865.38;;;15.15;100.00
55490;BME280;44029;52.956;4.772;2022-10-16T01:49:03;100878.91;;;15.11;100.00
55490;BME280;44029;52.956;4.772;2022-10-16T01:51:30;100888.53;;;15.24;100.00
55490;BME280;44029;52.956;4.772;2022-10-16T01:53:58;100898.16;;;15.42;100.00
55490;BME280;44029;52.956;4.772;2022-10-16T01:56:25;100878.03;;;15.31;100.00
55490;BME280;44029;52.956;4.772;2022-10-16T01:58:58;100884.66;;;15.30;100.00
55490;BME280;44029;52.956;4.772;2022-10-16T02:01:26;100876.13;;;15.21;100.00
55490;BME280;44029;52.956;4.772;2022-10-16T02:03:56;100883.06;;;15.08;100.00
55490;BME280;44029;52.956;4.772;2022-10-16T02:06:22;100875.06;;;15.02;100.00
55490;BME280;44029;52.956;4.772;2022-10-16T02:08:48;100874.22;;;15.12;100.00
55490;BME280;44029;52.956;4.772;2022-10-16T02:11:14;100876.97;;;15.12;100.00
55490;BME280;44029;52.956;4.772;2022-10-16T02:13:44;100880.19;;;15.39;100.00
55490;BME280;44029;52.956;4.772;2022-10-16T02:16:11;100879.44;;;15.23;100.00
55490;BME280;44029;52.956;4.772;2022-10-16T02:18:38;100877.50;;;15.24;100.00
55490;BME280;44029;52.956;4.772;2022-10-16T02:21:17;100883.81;;;15.40;100.00
55490;BME280;44029;52.956;4.772;2022-10-16T02:23:54;100883.81;;;15.35;100.00
55490;BME280;44029;52.956;4.772;2022-10-16T02:26:52;100878.84;;;15.26;100.00
55490;BME280;44029;52.956;4.772;2022-10-16T02:29:24;100881.13;;;15.14;100.00
55490;BME280;44029;52.956;4.772;2022-10-16T02:31:57;100869.22;;;15.14;100.00
55490;BME280;44029;52.956;4.772;2022-10-16T02:34:25;100860.19;;;14.98;100.00
55490;BME280;44029;52.956;4.772;2022-10-16T02:36:52;100844.19;;;15.00;100.00
55490;BME280;44029;52.956;4.772;2022-10-16T02:39:19;100843.06;;;15.01;100.00
55490;BME280;44029;52.956;4.772;2022-10-16T02:44:13;100817.72;;;14.88;100.00
55490;BME280;44029;52.956;4.772;2022-10-16T02:46:38;100818.59;;;14.79;100.00
55490;BME280;44029;52.956;4.772;2022-10-16T02:49:04;100813.59;;;14.86;100.00
55490;BME280;44029;52.956;4.772;2022-10-16T02:51:29;100813.00;;;14.99;100.00
55490;BME280;44029;52.956;4.772;2022-10-16T02:53:54;100821.50;;;15.18;100.00
55490;BME280;44029;52.956;4.772;2022-10-16T02:56:20;100827.53;;;15.31;100.00
55490;BME280;44029;52.956;4.772;2022-10-16T02:58:45;100835.50;;;15.32;100.00
55490;BME280;44029;52.956;4.772;2022-10-16T03:01:11;100851.31;;;15.16;100.00
55490;BME280;44029;52.956;4.772;2022-10-16T03:03:38;100844.72;;;14.92;100.00
55490;BME280;44029;52.956;4.772;2022-10-16T03:06:03;100835.91;;;14.95;100.00
55490;BME280;44029;52.956;4.772;2022-10-16T03:08:29;100831.19;;;15.05;100.00
55490;BME280;44029;52.956;4.772;2022-10-16T03:10:54;100829.00;;;15.02;100.00
55490;BME280;44029;52.956;4.772;2022-10-16T03:13:19;100811.28;;;15.14;100.00
55490;BME280;44029;52.956;4.772;2022-10-16T03:15:46;100824.53;;;15.12;100.00
55490;BME280;44029;52.956;4.772;2022-10-16T03:18:11;100820.97;;;15.06;100.00
55490;BME280;44029;52.956;4.772;2022-10-16T03:20:37;100817.66;;;15.09;100.00
55490;BME280;44029;52.956;4.772;2022-10-16T03:23:02;100828.97;;;15.13;100.00
55490;BME280;44029;52.956;4.772;2022-10-16T03:25:28;100840.81;;;15.23;100.00
55490;BME280;44029;52.956;4.772;2022-10-16T03:27:53;100835.81;;;15.31;100.00
55490;BME280;44029;52.956;4.772;2022-10-16T03:30:18;100856.22;;;15.30;100.00
55490;BME280;44029;52.956;4.772;2022-10-16T03:32:44;100868.88;;;15.41;100.00
55490;BME280;44029;52.956;4.772;2022-10-16T03:35:10;100864.50;;;15.30;100.00
55490;BME280;44029;52.956;4.772;2022-10-16T03:37:35;100885.19;;;15.32;100.00
55490;BME280;44029;52.956;4.772;2022-10-16T03:40:02;100894.84;;;15.40;100.00
55490;BME280;44029;52.956;4.772;2022-10-16T03:42:28;100910.00;;;15.42;100.00
55490;BME280;44029;52.956;4.772;2022-10-16T03:44:53;100918.03;;;15.34;100.00
55490;BME280;44029;52.956;4.772;2022-10-16T03:47:18;100919.16;;;15.27;100.00
55490;BME280;44029;52.956;4.772;2022-10-16T03:49:47;100920.84;;;15.18;100.00
55490;BME280;44029;52.956;4.772;2022-10-16T03:52:12;100925.81;;;15.01;100.00
55490;BME280;44029;52.956;4.772;2022-10-16T03:54:37;100914.28;;;14.94;100.00
55490;BME280;44029;52.956;4.772;2022-10-16T03:57:03;100912.06;;;14.85;100.00
55490;BME280;44029;52.956;4.772;2022-10-16T03:59:28;100908.19;;;14.97;100.00
55490;BME280;44029;52.956;4.772;2022-10-16T04:01:53;100908.19;;;14.97;100.00
55490;BME280;44029;52.956;4.772;2022-10-16T04:04:19;100906.50;;;15.01;100.00
55490;BME280;44029;52.956;4.772;2022-10-16T04:06:44;100910.13;;;15.01;100.00
55490;BME280;44029;52.956;4.772;2022-10-16T04:09:09;100928.59;;;14.96;100.00
55490;BME280;44029;52.956;4.772;2022-10-16T04:11:35;100930.81;;;14.88;100.00
55490;BME280;44029;52.956;4.772;2022-10-16T04:14:00;100933.56;;;14.88;100.00
55490;BME280;44029;52.956;4.772;2022-10-16T04:16:25;100939.91;;;14.89;100.00
55490;BME280;44029;52.956;4.772;2022-10-16T04:18:51;100942.94;;;14.87;100.00
55490;BME280;44029;52.956;4.772;2022-10-16T04:21:16;100935.78;;;14.86;100.00
55490;BME280;44029;52.956;4.772;2022-10-16T04:23:42;100955.06;;;14.92;100.00
55490;BME280;44029;52.956;4.772;2022-10-16T04:26:07;100952.06;;;14.88;100.00
55490;BME280;44029;52.956;4.772;2022-10-16T04:28:33;100951.50;;;14.86;100.00
55490;BME280;44029;52.956;4.772;2022-10-16T04:30:58;100955.34;;;14.95;100.00
55490;BME280;44029;52.956;4.772;2022-10-16T04:33:24;100957.03;;;15.01;100.00
55490;BME280;44029;52.956;4.772;2022-10-16T04:35:56;100957.25;;;15.31;100.00
55490;BME280;44029;52.956;4.772;2022-10-16T04:38:22;100961.09;;;15.24;100.00
55490;BME280;44029;52.956;4.772;2022-10-16T04:40:47;100961.16;;;15.14;100.00
55490;BME280;44029;52.956;4.772;2022-10-16T04:43:12;100982.63;;;15.17;100.00
55490;BME280;44029;52.956;4.772;2022-10-16T04:45:38;100978.78;;;15.13;100.00
55490;BME280;44029;52.956;4.772;2022-10-16T04:48:03;100966.94;;;15.02;100.00
55490;BME280;44029;52.956;4.772;2022-10-16T04:50:28;100949.28;;;14.93;100.00
55490;BME280;44029;52.956;4.772;2022-10-16T04:52:54;100956.16;;;15.01;100.00
55490;BME280;44029;52.956;4.772;2022-10-16T04:55:19;100941.00;;;15.08;100.00
55490;BME280;44029;52.956;4.772;2022-10-16T04:57:44;100955.03;;;15.22;100.00
55490;BME280;44029;52.956;4.772;2022-10-16T05:00:10;100960.84;;;15.21;100.00
55490;BME280;44029;52.956;4.772;2022-10-16T05:02:36;100980.47;;;15.14;100.00
55490;BME280;44029;52.956;4.772;2022-10-16T05:05:01;100982.66;;;14.97;100.00
55490;BME280;44029;52.956;4.772;2022-10-16T05:07:26;100990.94;;;14.86;100.00
55490;BME280;44029;52.956;4.772;2022-10-16T05:09:52;100972.16;;;14.58;100.00
55490;BME280;44029;52.956;4.772;2022-10-16T05:12:18;100957.28;;;14.69;100.00
55490;BME280;44029;52.956;4.772;2022-10-16T05:14:43;100945.16;;;14.70;100.00
55490;BME280;44029;52.956;4.772;2022-10-16T05:17:09;100935.78;;;14.81;100.00
55490;BME280;44029;52.956;4.772;2022-10-16T05:19:34;100938.00;;;14.79;100.00
55490;BME280;44029;52.956;4.772;2022-10-16T05:22:00;100938.25;;;14.93;100.00
55490;BME280;44029;52.956;4.772;2022-10-16T05:24:25;100942.41;;;14.91;100.00
55490;BME280;44029;52.956;4.772;2022-10-16T05:26:51;100942.69;;;14.99;100.00
55490;BME280;44029;52.956;4.772;2022-10-16T05:29:17;100949.84;;;14.90;100.00
55490;BME280;44029;52.956;4.772;2022-10-16T05:31:42;100950.66;;;14.91;100.00
55490;BME280;44029;52.956;4.772;2022-10-16T05:34:08;100957.56;;;14.83;100.00
55490;BME280;44029;52.956;4.772;2022-10-16T05:36:33;100938.25;;;14.78;100.00
55490;BME280;44029;52.956;4.772;2022-10-16T05:38:58;100940.75;;;14.74;100.00
55490;BME280;44029;52.956;4.772;2022-10-16T05:41:24;100948.47;;;14.77;100.00
55490;BME280;44029;52.956;4.772;2022-10-16T05:43:51;100949.03;;;14.79;100.00
55490;BME280;44029;52.956;4.772;2022-10-16T05:46:17;100941.56;;;14.80;100.00
55490;BME280;44029;52.956;4.772;2022-10-16T05:48:42;100946.81;;;14.81;100.00
55490;BME280;44029;52.956;4.772;2022-10-16T05:51:11;100967.50;;;14.94;100.00
55490;BME280;44029;52.956;4.772;2022-10-16T05:53:38;100964.72;;;14.84;100.00
55490;BME280;44029;52.956;4.772;2022-10-16T05:56:05;100976.88;;;14.88;100.00
55490;BME280;44029;52.956;4.772;2022-10-16T05:58:35;100983.50;;;14.82;100.00
55490;BME280;44029;52.956;4.772;2022-10-16T06:01:21;100984.31;;;14.98;100.00
55490;BME280;44029;52.956;4.772;2022-10-16T06:03:50;100981.28;;;14.74;100.00
55490;BME280;44029;52.956;4.772;2022-10-16T06:06:21;100977.72;;;14.88;100.00
55490;BME280;44029;52.956;4.772;2022-10-16T06:08:47;100976.59;;;14.79;100.00
55490;BME280;44029;52.956;4.772;2022-10-16T06:11:19;100977.41;;;14.95;100.00
55490;BME280;44029;52.956;4.772;2022-10-16T06:13:44;100989.84;;;15.03;100.00
55490;BME280;44029;52.956;4.772;2022-10-16T06:16:12;100987.09;;;14.93;100.00
55490;BME280;44029;52.956;4.772;2022-10-16T06:18:38;100987.63;;;14.95;100.00
55490;BME280;44029;52.956;4.772;2022-10-16T06:21:08;100996.19;;;14.93;100.00
55490;BME280;44029;52.956;4.772;2022-10-16T06:23:34;100998.94;;;14.83;100.00
55490;BME280;44029;52.956;4.772;2022-10-16T06:26:10;100994.53;;;15.07;100.00
55490;BME280;44029;52.956;4.772;2022-10-16T06:28:35;101012.72;;;14.93;100.00
55490;BME280;44029;52.956;4.772;2022-10-16T06:31:02;101001.97;;;14.97;100.00
55490;BME280;44029;52.956;4.772;2022-10-16T06:33:28;100998.13;;;14.98;100.00
55490;BME280;44029;52.956;4.772;2022-10-16T06:35:53;101005.81;;;15.01;100.00
55490;BME280;44029;52.956;4.772;2022-10-16T06:38:19;101002.25;;;14.95;100.00
55490;BME280;44029;52.956;4.772;2022-10-16T06:40:44;101000.03;;;15.13;100.00
55490;BME280;44029;52.956;4.772;2022-10-16T06:43:09;101019.66;;;15.21;100.00
55490;BME280;44029;52.956;4.772;2022-10-16T06:45:35;101016.88;;;15.16;100.00
55490;BME280;44029;52.956;4.772;2022-10-16T06:48:00;101015.75;;;15.17;100.00
55490;BME280;44029;52.956;4.772;2022-10-16T06:50:25;101020.47;;;15.22;100.00
55490;BME280;44029;52.956;4.772;2022-10-16T06:52:51;101016.31;;;15.09;100.00
55490;BME280;44029;52.956;4.772;2022-10-16T06:55:16;101023.47;;;15.10;100.00
55490;BME280;44029;52.956;4.772;2022-10-16T06:57:43;101018.25;;;15.14;100.00
55490;BME280;44029;52.956;4.772;2022-10-16T07:00:09;101031.78;;;15.25;100.00
55490;BME280;44029;52.956;4.772;2022-10-16T07:02:34;101028.47;;;15.13;100.00
55490;BME280;44029;52.956;4.772;2022-10-16T07:04:59;101029.56;;;15.17;100.00
55490;BME280;44029;52.956;4.772;2022-10-16T07:07:25;101039.47;;;15.28;100.00
55490;BME280;44029;52.956;4.772;2022-10-16T07:09:51;101043.63;;;15.21;100.00
55490;BME280;44029;52.956;4.772;2022-10-16T07:12:17;101039.78;;;15.17;100.00
55490;BME280;44029;52.956;4.772;2022-10-16T07:14:42;101056.34;;;15.27;100.00
55490;BME280;44029;52.956;4.772;2022-10-16T07:17:08;101059.94;;;15.27;100.00
55490;BME280;44029;52.956;4.772;2022-10-16T07:19:33;101070.41;;;15.46;100.00
55490;BME280;44029;52.956;4.772;2022-10-16T07:21:58;101071.53;;;15.40;100.00
55490;BME280;44029;52.956;4.772;2022-10-16T07:24:24;101085.59;;;15.38;100.00
55490;BME280;44029;52.956;4.772;2022-10-16T07:26:49;101086.16;;;15.35;100.00
55490;BME280;44029;52.956;4.772;2022-10-16T07:29:20;101085.84;;;15.47;100.00
55490;BME280;44029;52.956;4.772;2022-10-16T07:31:47;101101.06;;;15.50;100.00
55490;BME280;44029;52.956;4.772;2022-10-16T07:34:14;101099.94;;;15.51;100.00
55490;BME280;44029;52.956;4.772;2022-10-16T07:36:40;101103.81;;;15.39;100.00
55490;BME280;44029;52.956;4.772;2022-10-16T07:39:06;101107.66;;;15.43;100.00
55490;BME280;44029;52.956;4.772;2022-10-16T07:41:31;101107.09;;;15.98;100.00
55490;BME280;44029;52.956;4.772;2022-10-16T07:43:58;101113.09;;;16.20;100.00
55490;BME280;44029;52.956;4.772;2022-10-16T07:46:25;101105.84;;;16.40;100.00
55490;BME280;44029;52.956;4.772;2022-10-16T07:48:51;101117.59;;;16.71;100.00
55490;BME280;44029;52.956;4.772;2022-10-16T07:51:19;101129.16;;;16.78;100.00
55490;BME280;44029;52.956;4.772;2022-10-16T07:53:45;101122.91;;;17.47;100.00
55490;BME280;44029;52.956;4.772;2022-10-16T07:56:10;101122.19;;;16.91;100.00
55490;BME280;44029;52.956;4.772;2022-10-16T07:58:37;101107.25;;;16.92;100.00
55490;BME280;44029;52.956;4.772;2022-10-16T08:01:04;101124.75;;;16.83;100.00
55490;BME280;44029;52.956;4.772;2022-10-16T08:03:30;101134.78;;;16.58;100.00
55490;BME280;44029;52.956;4.772;2022-10-16T08:05:57;101132.50;;;17.25;100.00
55490;BME280;44029;52.956;4.772;2022-10-16T08:08:23;101135.16;;;17.41;100.00
55490;BME280;44029;52.956;4.772;2022-10-16T08:10:48;101133.34;;;17.60;100.00
55490;BME280;44029;52.956;4.772;2022-10-16T08:13:13;101139.34;;;17.38;100.00
55490;BME280;44029;52.956;4.772;2022-10-16T08:15:41;101140.47;;;17.66;100.00
55490;BME280;44029;52.956;4.772;2022-10-16T08:18:06;101146.44;;;17.49;100.00
55490;BME280;44029;52.956;4.772;2022-10-16T08:20:33;101149.75;;;17.51;100.00
55490;BME280;44029;52.956;4.772;2022-10-16T08:23:01;101158.59;;;17.53;100.00
55490;BME280;44029;52.956;4.772;2022-10-16T08:25:27;101162.50;;;17.87;100.00
55490;BME280;44029;52.956;4.772;2022-10-16T08:27:53;101173.56;;;18.16;100.00
55490;BME280;44029;52.956;4.772;2022-10-16T08:30:20;101176.72;;;18.04;100.00
55490;BME280;44029;52.956;4.772;2022-10-16T08:32:45;101183.88;;;17.76;100.00
55490;BME280;44029;52.956;4.772;2022-10-16T08:35:12;101187.03;;;17.64;100.00
55490;BME280;44029;52.956;4.772;2022-10-16T08:37:38;101192.16;;;17.02;100.00
55490;BME280;44029;52.956;4.772;2022-10-16T08:40:05;101195.47;;;17.04;100.00
55490;BME280;44029;52.956;4.772;2022-10-16T08:45:57;101216.91;;;17.33;100.00
55490;BME280;44029;52.956;4.772;2022-10-16T08:51:01;101234.69;;;17.22;100.00
55490;BME280;44029;52.956;4.772;2022-10-16T08:53:30;101241.06;;;17.17;100.00
55490;BME280;44029;52.956;4.772;2022-10-16T08:55:58;101253.38;;;16.90;100.00
55490;BME280;44029;52.956;4.772;2022-10-16T08:58:28;101257.69;;;17.17;100.00
55490;BME280;44029;52.956;4.772;2022-10-16T09:00:57;101255.19;;;17.20;100.00
55490;BME280;44029;52.956;4.772;2022-10-16T09:03:33;101273.84;;;16.99;100.00
55490;BME280;44029;52.956;4.772;2022-10-16T09:14:06;101284.81;;;17.20;100.00
55490;BME280;44029;52.956;4.772;2022-10-16T09:16:44;101283.69;;;17.21;100.00
55490;BME280;44029;52.956;4.772;2022-10-16T09:19:24;101286.72;;;17.25;100.00
55490;BME280;44029;52.956;4.772;2022-10-16T09:21:53;101294.84;;;17.06;100.00
55490;BME280;44029;52.956;4.772;2022-10-16T09:24:22;101297.84;;;17.14;100.00
55490;BME280;44029;52.956;4.772;2022-10-16T09:26:49;101306.25;;;16.89;100.00
55490;BME280;44029;52.956;4.772;2022-10-16T09:29:16;101302.06;;;17.02;100.00
55490;BME280;44029;52.956;4.772;2022-10-16T09:31:42;101300.44;;;16.95;100.00
55490;BME280;44029;52.956;4.772;2022-10-16T09:34:20;101309.47;;;17.11;100.00
55490;BME280;44029;52.956;4.772;2022-10-16T09:36:48;101303.75;;;16.97;100.00
55490;BME280;44029;52.956;4.772;2022-10-16T09:39:14;101315.66;;;16.77;100.00
55490;BME280;44029;52.956;4.772;2022-10-16T09:41:42;101317.84;;;16.96;100.00
55490;BME280;44029;52.956;4.772;2022-10-16T09:44:22;101328.38;;;16.99;100.00
55490;BME280;44029;52.956;4.772;2022-10-16T09:46:48;101322.31;;;16.71;100.00
55490;BME280;44029;52.956;4.772;2022-10-16T09:49:25;101338.91;;;16.92;100.00
55490;BME280;44029;52.956;4.772;2022-10-16T09:52:02;101333.34;;;16.81;100.00
55490;BME280;44029;52.956;4.772;2022-10-16T09:54:27;101330.31;;;16.78;100.00
55490;BME280;44029;52.956;4.772;2022-10-16T09:57:04;101340.81;;;17.02;100.00
55490;BME280;44029;52.956;4.772;2022-10-16T09:59:31;101350.53;;;16.94;100.00
55490;BME280;44029;52.956;4.772;2022-10-16T10:02:01;101352.13;;;17.10;100.00
55490;BME280;44029;52.956;4.772;2022-10-16T10:04:38;101354.91;;;17.05;100.00
55490;BME280;44029;52.956;4.772;2022-10-16T10:07:04;101355.47;;;16.97;100.00
55490;BME280;44029;52.956;4.772;2022-10-16T10:09:37;101355.47;;;17.02;100.00
55490;BME280;44029;52.956;4.772;2022-10-16T10:12:18;101362.97;;;16.96;100.00
55490;BME280;44029;52.956;4.772;2022-10-16T10:14:48;101371.03;;;16.83;100.00
55490;BME280;44029;52.956;4.772;2022-10-16T10:17:17;101370.13;;;16.82;100.00
55490;BME280;44029;52.956;4.772;2022-10-16T10:20:13;101373.78;;;16.83;100.00
55490;BME280;44029;52.956;4.772;2022-10-16T10:32:54;101389.47;;;17.23;100.00
55490;BME280;44029;52.956;4.772;2022-10-16T10:35:27;101396.44;;;17.05;100.00
55490;BME280;44029;52.956;4.772;2022-10-16T10:45:44;101408.31;;;17.11;100.00
55490;BME280;44029;52.956;4.772;2022-10-16T10:51:31;101411.94;;;17.01;100.00
55490;BME280;44029;52.956;4.772;2022-10-16T10:57:02;101432.16;;;17.07;100.00
55490;BME280;44029;52.956;4.772;2022-10-16T10:59:41;101443.47;;;17.15;100.00
55490;BME280;44029;52.956;4.772;2022-10-16T11:02:18;101431.28;;;17.11;100.00
55490;BME280;44029;52.956;4.772;2022-10-16T11:07:23;101442.09;;;17.03;100.00
55490;BME280;44029;52.956;4.772;2022-10-16T11:09:53;101449.25;;;17.19;100.00
55490;BME280;44029;52.956;4.772;2022-10-16T11:12:28;101450.34;;;17.28;100.00
55490;BME280;44029;52.956;4.772;2022-10-16T11:15:04;101457.88;;;17.12;100.00
55490;BME280;44029;52.956;4.772;2022-10-16T11:17:41;101456.22;;;17.11;100.00
55490;BME280;44029;52.956;4.772;2022-10-16T11:20:28;101453.13;;;17.33;100.00
55490;BME280;44029;52.956;4.772;2022-10-16T11:23:05;101457.25;;;17.36;100.00
55490;BME280;44029;52.956;4.772;2022-10-16T11:25:34;101462.03;;;17.15;100.00
55490;BME280;44029;52.956;4.772;2022-10-16T11:31:40;101468.66;;;17.24;100.00
55490;BME280;44029;52.956;4.772;2022-10-16T11:34:22;101462.44;;;17.58;100.00
55490;BME280;44029;52.956;4.772;2022-10-16T11:36:55;101474.72;;;17.36;100.00
55490;BME280;44029;52.956;4.772;2022-10-16T11:39:29;101486.03;;;17.55;100.00
55490;BME280;44029;52.956;4.772;2022-10-16T11:42:03;101486.66;;;17.22;100.00
55490;BME280;44029;52.956;4.772;2022-10-16T11:44:54;101487.47;;;17.12;100.00
55490;BME280;44029;52.956;4.772;2022-10-16T11:47:42;101487.75;;;17.15;100.00
55490;BME280;44029;52.956;4.772;2022-10-16T11:52:52;101500.25;;;16.92;100.00
55490;BME280;44029;52.956;4.772;2022-10-16T11:55:25;101490.53;;;17.00;100.00
55490;BME280;44029;52.956;4.772;2022-10-16T11:58:03;101504.38;;;17.15;100.00
55490;BME280;44029;52.956;4.772;2022-10-16T12:00:47;101500.22;;;17.23;100.00
55490;BME280;44029;52.956;4.772;2022-10-16T12:03:22;101500.19;;;17.28;100.00
55490;BME280;44029;52.956;4.772;2022-10-16T12:08:54;101519.59;;;17.08;100.00
55490;BME280;44029;52.956;4.772;2022-10-16T12:16:32;101517.41;;;16.99;100.00
55490;BME280;44029;52.956;4.772;2022-10-16T12:19:15;101525.44;;;17.16;100.00
55490;BME280;44029;52.956;4.772;2022-10-16T12:21:42;101519.56;;;16.82;100.00
55490;BME280;44029;52.956;4.772;2022-10-16T12:24:21;101519.31;;;17.04;100.00
55490;BME280;44029;52.956;4.772;2022-10-16T12:26:52;101521.28;;;16.88;100.00
55490;BME280;44029;52.956;4.772;2022-10-16T12:29:39;101530.94;;;17.06;100.00
55490;BME280;44029;52.956;4.772;2022-10-16T12:32:31;101533.44;;;17.08;100.00
55490;BME280;44029;52.956;4.772;2022-10-16T12:34:58;101538.16;;;16.87;100.00
55490;BME280;44029;52.956;4.772;2022-10-16T12:37:26;101538.16;;;16.97;100.00
55490;BME280;44029;52.956;4.772;2022-10-16T12:39:53;101544.75;;;16.75;100.00
55490;BME280;44029;52.956;4.772;2022-10-16T12:44:53;101541.41;;;16.63;100.00
55490;BME280;44029;52.956;4.772;2022-10-16T12:49:57;101540.59;;;16.73;100.00
55490;BME280;44029;52.956;4.772;2022-10-16T12:52:36;101547.25;;;16.82;100.00
55490;BME280;44029;52.956;4.772;2022-10-16T12:55:04;101549.50;;;16.90;100.00
55490;BME280;44029;52.956;4.772;2022-10-16T13:02:53;101558.09;;;17.14;100.00
55490;BME280;44029;52.956;4.772;2022-10-16T13:08:23;101560.03;;;17.04;100.00
55490;BME280;44029;52.956;4.772;2022-10-16T13:13:50;101563.63;;;16.99;100.00
55490;BME280;44029;52.956;4.772;2022-10-16T13:22:06;101562.81;;;17.14;100.00
55490;BME280;44029;52.956;4.772;2022-10-16T13:27:41;101573.88;;;17.04;100.00
55490;BME280;44029;52.956;4.772;2022-10-16T13:32:48;101574.16;;;17.07;100.00
55490;BME280;44029;52.956;4.772;2022-10-16T13:35:26;101577.47;;;17.04;100.00
55490;BME280;44029;52.956;4.772;2022-10-16T13:38:12;101585.78;;;16.94;100.00
55490;BME280;44029;52.956;4.772;2022-10-16T13:43:19;101596.22;;;16.76;100.00
55490;BME280;44029;52.956;4.772;2022-10-16T13:46:05;101597.88;;;16.77;100.00
55490;BME280;44029;52.956;4.772;2022-10-16T13:48:32;101602.03;;;16.70;100.00
55490;BME280;44029;52.956;4.772;2022-10-16T13:51:06;101601.28;;;16.90;100.00
55490;BME280;44029;52.956;4.772;2022-10-16T13:53:36;101606.53;;;16.86;100.00
55490;BME280;44029;52.956;4.772;2022-10-16T13:56:07;101613.44;;;16.94;100.00
55490;BME280;44029;52.956;4.772;2022-10-16T13:58:35;101611.19;;;16.86;100.00
55490;BME280;44029;52.956;4.772;2022-10-16T14:01:06;101615.09;;;17.00;100.00
55490;BME280;44029;52.956;4.772;2022-10-16T14:03:39;101617.06;;;16.99;100.00
55490;BME280;44029;52.956;4.772;2022-10-16T14:06:12;101619.25;;;16.92;100.00
55490;BME280;44029;52.956;4.772;2022-10-16T14:08:42;101626.44;;;16.83;100.00
55490;BME280;44029;52.956;4.772;2022-10-16T14:11:08;101625.81;;;16.71;100.00
55490;BME280;44029;52.956;4.772;2022-10-16T14:13:38;101630.81;;;16.79;100.00
55490;BME280;44029;52.956;4.772;2022-10-16T14:16:09;101634.13;;;16.76;100.00
55490;BME280;44029;52.956;4.772;2022-10-16T14:18:37;101650.41;;;16.67;100.00
55490;BME280;44029;52.956;4.772;2022-10-16T14:21:13;101652.34;;;16.61;100.00
55490;BME280;44029;52.956;4.772;2022-10-16T14:23:41;101649.28;;;16.63;100.00
55490;BME280;44029;52.956;4.772;2022-10-16T14:28:39;101657.63;;;16.68;100.00